createdAt,value
2019-02-28T00:01:46.439Z,21.30
2019-02-28T00:04:15.760Z,21.30
2019-02-28T00:06:45.396Z,21.30
2019-02-28T00:09:15.178Z,21.30
2019-02-28T00:11:44.880Z,21.30
2019-02-28T00:14:14.516Z,21.30
2019-02-28T00:16:44.139Z,21.30
2019-02-28T00:19:13.849Z,21.30
2019-02-28T00:21:43.471Z,21.30
2019-02-28T00:24:13.116Z,21.30
2019-02-28T00:26:46.274Z,21.30
2019-02-28T00:29:14.063Z,21.30
2019-02-28T00:31:49.277Z,21.30
2019-02-28T00:34:15.027Z,21.30
2019-02-28T00:36:44.750Z,21.30
2019-02-28T00:39:14.387Z,21.30
2019-02-28T00:41:44.725Z,21.30
2019-02-28T00:44:15.399Z,21.30
2019-02-28T00:46:45.387Z,21.30
2019-02-28T00:49:15.100Z,21.30
2019-02-28T00:51:45.766Z,21.30
2019-02-28T00:54:15.402Z,21.30
2019-02-28T00:56:45.034Z,21.30
2019-02-28T00:59:14.738Z,21.30
2019-02-28T01:01:45.896Z,21.20
2019-02-28T01:04:15.743Z,21.20
2019-02-28T01:06:45.444Z,21.20
2019-02-28T01:09:15.079Z,21.20
2019-02-28T01:11:45.548Z,21.20
2019-02-28T01:14:15.302Z,21.20
2019-02-28T01:16:44.934Z,21.20
2019-02-28T01:19:14.566Z,21.20
2019-02-28T01:21:44.259Z,21.20
2019-02-28T01:24:13.907Z,21.20
2019-02-28T01:26:46.707Z,21.20
2019-02-28T01:29:14.864Z,21.20
2019-02-28T01:31:44.487Z,21.20
2019-02-28T01:34:14.188Z,21.20
2019-02-28T01:36:45.897Z,21.20
2019-02-28T01:39:15.238Z,21.20
2019-02-28T01:41:45.193Z,21.20
2019-02-28T01:44:15.474Z,21.20
2019-02-28T01:46:45.176Z,21.20
2019-02-28T01:49:14.814Z,21.20
2019-02-28T01:51:44.430Z,21.20
2019-02-28T01:54:14.209Z,21.20
2019-02-28T01:56:43.836Z,21.20
2019-02-28T01:59:13.463Z,21.20
2019-02-28T02:01:43.099Z,21.20
2019-02-28T02:04:13.212Z,21.20
2019-02-28T02:06:42.911Z,21.20
2019-02-28T02:09:12.544Z,21.20
2019-02-28T02:11:42.254Z,21.20
2019-02-28T02:14:11.926Z,21.20
2019-02-28T02:16:42.563Z,21.20
2019-02-28T02:19:17.528Z,21.20
2019-02-28T02:21:43.579Z,21.20
2019-02-28T02:24:13.215Z,21.20
2019-02-28T02:26:45.220Z,21.20
2019-02-28T02:29:14.172Z,21.20
2019-02-28T02:31:43.865Z,21.20
2019-02-28T02:34:13.510Z,21.20
2019-02-28T02:36:43.154Z,21.20
2019-02-28T02:39:16.641Z,21.20
2019-02-28T02:41:45.318Z,21.10
2019-02-28T02:44:14.937Z,21.10
2019-02-28T02:46:44.584Z,21.20
2019-02-28T02:49:18.533Z,21.20
2019-02-28T02:51:50.293Z,21.10
2019-02-28T02:54:19.621Z,21.10
2019-02-28T02:56:48.187Z,21.10
2019-02-28T02:59:17.811Z,21.10
2019-02-28T03:01:47.526Z,21.10
2019-02-28T03:04:23.106Z,21.10
2019-02-28T03:06:48.482Z,21.10
2019-02-28T03:09:18.096Z,21.10
2019-02-28T03:11:47.734Z,21.10
2019-02-28T03:14:17.672Z,21.10
2019-02-28T03:16:48.368Z,21.10
2019-02-28T03:19:17.996Z,21.10
2019-02-28T03:21:51.869Z,21.10
2019-02-28T03:24:18.962Z,21.10
2019-02-28T03:26:48.598Z,21.10
2019-02-28T03:29:18.220Z,21.10
2019-02-28T03:31:55.198Z,21.10
2019-02-28T03:34:20.151Z,21.10
2019-02-28T03:36:55.490Z,21.10
2019-02-28T03:39:24.735Z,21.10
2019-02-28T03:41:52.929Z,21.10
2019-02-28T03:44:23.655Z,21.10
2019-02-28T03:46:53.286Z,21.00
2019-02-28T03:49:22.915Z,21.00
2019-02-28T03:51:52.559Z,21.00
2019-02-28T03:54:22.256Z,21.10
2019-02-28T03:56:53.364Z,21.10
2019-02-28T03:59:23.067Z,21.10
2019-02-28T04:01:52.826Z,21.00
2019-02-28T04:04:22.594Z,21.10
2019-02-28T04:06:52.234Z,21.10
2019-02-28T04:09:21.863Z,21.10
2019-02-28T04:11:51.511Z,21.00
2019-02-28T04:14:21.135Z,21.00
2019-02-28T04:16:54.197Z,21.00
2019-02-28T04:19:23.050Z,21.10
2019-02-28T04:21:53.865Z,21.00
2019-02-28T04:24:23.567Z,21.00
2019-02-28T04:26:53.203Z,21.00
2019-02-28T04:29:30.089Z,21.00
2019-02-28T04:31:54.176Z,21.10
2019-02-28T04:34:23.787Z,21.10
2019-02-28T04:36:53.430Z,21.10
2019-02-28T04:39:23.642Z,21.10
2019-02-28T04:41:53.285Z,21.10
2019-02-28T04:44:22.923Z,21.10
2019-02-28T04:46:52.551Z,21.10
2019-02-28T04:49:22.878Z,21.10
2019-02-28T04:51:53.523Z,21.10
2019-02-28T04:54:24.547Z,21.10
2019-02-28T04:56:54.486Z,21.00
2019-02-28T04:59:24.120Z,21.00
2019-02-28T05:01:53.755Z,21.00
2019-02-28T05:04:23.458Z,21.00
2019-02-28T05:06:55.244Z,20.90
2019-02-28T05:09:24.431Z,21.00
2019-02-28T05:11:54.139Z,20.90
2019-02-28T05:14:24.417Z,20.90
2019-02-28T05:16:54.161Z,20.90
2019-02-28T05:19:23.785Z,20.90
2019-02-28T05:21:54.272Z,20.90
2019-02-28T05:24:24.024Z,20.90
2019-02-28T05:26:53.735Z,20.90
2019-02-28T05:29:23.354Z,20.90
2019-02-28T05:31:52.978Z,20.90
2019-02-28T05:34:22.603Z,20.90
2019-02-28T05:36:52.236Z,20.90
2019-02-28T05:39:21.875Z,20.90
2019-02-28T05:41:51.502Z,20.90
2019-02-28T05:44:21.421Z,20.90
2019-02-28T05:46:51.154Z,21.00
2019-02-28T05:49:20.813Z,20.90
2019-02-28T05:51:50.521Z,21.00
2019-02-28T05:54:20.439Z,20.90
2019-02-28T05:56:50.082Z,21.00
2019-02-28T05:59:19.712Z,21.00
2019-02-28T06:01:49.345Z,20.90
2019-02-28T06:04:18.979Z,20.90
2019-02-28T06:06:51.281Z,20.90
2019-02-28T06:09:19.959Z,20.90
2019-02-28T06:11:49.583Z,20.90
2019-02-28T06:14:19.223Z,20.90
2019-02-28T06:16:48.843Z,20.90
2019-02-28T06:19:20.283Z,20.90
2019-02-28T06:21:49.986Z,20.90
2019-02-28T06:24:19.639Z,20.90
2019-02-28T06:26:49.335Z,20.90
2019-02-28T06:29:19.275Z,20.90
2019-02-28T06:31:49.453Z,20.90
2019-02-28T06:34:19.118Z,21.00
2019-02-28T06:36:48.780Z,20.90
2019-02-28T06:39:18.427Z,20.90
2019-02-28T06:41:48.067Z,20.90
2019-02-28T06:44:17.701Z,20.90
2019-02-28T06:46:47.323Z,21.00
2019-02-28T06:49:16.962Z,21.00
2019-02-28T06:51:48.353Z,21.00
2019-02-28T06:54:17.998Z,21.00
2019-02-28T06:56:47.623Z,20.90
2019-02-28T06:59:17.407Z,20.90
2019-02-28T07:01:47.039Z,20.90
2019-02-28T07:04:16.675Z,20.90
2019-02-28T07:06:46.327Z,21.00
2019-02-28T07:09:15.959Z,21.00
2019-02-28T07:11:45.646Z,21.00
2019-02-28T07:14:15.278Z,21.10
2019-02-28T07:16:44.916Z,21.10
2019-02-28T07:19:14.551Z,21.10
2019-02-28T07:21:44.493Z,21.10
2019-02-28T07:24:14.222Z,21.10
2019-02-28T07:26:43.846Z,21.10
2019-02-28T07:29:13.479Z,21.10
2019-02-28T07:31:43.119Z,21.10
2019-02-28T07:34:16.769Z,21.10
2019-02-28T07:36:45.871Z,21.10
2019-02-28T07:39:15.560Z,21.10
2019-02-28T07:41:45.190Z,21.10
2019-02-28T07:44:21.059Z,21.20
2019-02-28T07:46:46.156Z,21.20
2019-02-28T07:49:15.792Z,21.20
2019-02-28T07:51:45.494Z,21.30
2019-02-28T07:54:15.814Z,21.50
2019-02-28T07:56:46.231Z,21.70
2019-02-28T07:59:15.872Z,21.70
2019-02-28T08:01:45.507Z,21.70
2019-02-28T08:04:18.386Z,21.70
2019-02-28T08:06:47.494Z,21.80
2019-02-28T08:09:30.437Z,21.90
2019-02-28T08:12:00.164Z,21.90
2019-02-28T08:14:29.827Z,22.00
2019-02-28T08:16:59.455Z,22.10
2019-02-28T08:19:29.091Z,22.20
2019-02-28T08:21:58.808Z,22.20
2019-02-28T08:24:28.526Z,22.20
2019-02-28T08:26:58.151Z,22.30
2019-02-28T08:29:27.862Z,22.30
2019-02-28T08:31:57.609Z,22.40
2019-02-28T08:34:27.298Z,22.50
2019-02-28T08:36:58.043Z,22.60
2019-02-28T08:39:27.687Z,22.80
2019-02-28T08:42:02.835Z,22.90
2019-02-28T08:44:28.715Z,23.10
2019-02-28T08:46:58.327Z,23.20
2019-02-28T08:49:27.957Z,23.20
2019-02-28T08:51:57.588Z,23.30
2019-02-28T08:54:27.602Z,23.40
2019-02-28T08:56:57.507Z,23.40
2019-02-28T08:59:27.159Z,23.50
2019-02-28T09:01:56.894Z,23.50
2019-02-28T09:04:26.598Z,23.40
2019-02-28T09:06:56.227Z,23.50
2019-02-28T09:09:25.861Z,23.40
2019-02-28T09:11:58.213Z,23.40
2019-02-28T09:14:26.826Z,23.30
2019-02-28T09:16:57.435Z,23.30
2019-02-28T09:19:27.066Z,23.00
2019-02-28T09:21:56.762Z,23.10
2019-02-28T09:24:26.374Z,23.20
2019-02-28T09:26:58.242Z,23.20
2019-02-28T09:29:27.877Z,23.30
2019-02-28T09:31:57.591Z,23.30
2019-02-28T09:34:27.295Z,23.10
2019-02-28T09:36:57.180Z,23.00
2019-02-28T09:39:26.806Z,22.90
2019-02-28T09:41:56.441Z,22.90
2019-02-28T09:44:26.342Z,22.90
2019-02-28T09:46:55.979Z,22.90
2019-02-28T09:49:26.583Z,23.10
2019-02-28T09:51:57.395Z,23.20
2019-02-28T09:54:27.032Z,23.20
2019-02-28T09:56:56.741Z,23.10
2019-02-28T09:59:26.364Z,23.00
2019-02-28T10:02:01.332Z,22.90
2019-02-28T10:04:30.427Z,22.80
2019-02-28T10:06:58.672Z,22.80
2019-02-28T10:09:28.308Z,22.70
2019-02-28T10:11:57.955Z,22.80
2019-02-28T10:14:28.980Z,23.00
2019-02-28T10:16:58.988Z,23.10
2019-02-28T10:19:28.624Z,23.20
2019-02-28T10:21:58.275Z,23.20
2019-02-28T10:24:28.395Z,23.20
2019-02-28T10:26:58.287Z,23.20
2019-02-28T10:29:27.938Z,23.00
2019-02-28T10:31:57.571Z,22.90
2019-02-28T10:34:27.465Z,23.10
2019-02-28T10:36:57.151Z,23.20
2019-02-28T10:39:28.147Z,23.30
2019-02-28T10:41:57.781Z,23.30
2019-02-28T10:44:30.696Z,23.40
2019-02-28T10:47:00.740Z,23.40
2019-02-28T10:49:30.375Z,23.30
2019-02-28T10:52:00.079Z,23.10
2019-02-28T10:54:29.778Z,23.00
2019-02-28T10:56:59.662Z,23.00
2019-02-28T10:59:29.362Z,23.10
2019-02-28T11:01:59.003Z,22.90
2019-02-28T11:04:30.182Z,22.80
2019-02-28T11:07:02.248Z,22.70
2019-02-28T11:09:31.394Z,22.70
2019-02-28T11:12:01.018Z,22.70
2019-02-28T11:14:30.719Z,22.70
2019-02-28T11:17:00.407Z,22.70
2019-02-28T11:19:30.197Z,22.70
2019-02-28T11:22:01.572Z,22.70
2019-02-28T11:24:31.226Z,22.70
2019-02-28T11:27:01.244Z,22.70
2019-02-28T11:29:30.945Z,22.80
2019-02-28T11:32:01.624Z,22.70
2019-02-28T11:34:31.327Z,22.80
2019-02-28T11:37:01.207Z,22.90
2019-02-28T11:39:33.669Z,22.90
2019-02-28T11:42:02.307Z,22.90
2019-02-28T11:44:32.099Z,22.80
2019-02-28T11:47:01.807Z,22.80
2019-02-28T11:49:31.582Z,22.80
2019-02-28T11:52:01.210Z,22.70
2019-02-28T11:54:30.839Z,22.70
2019-02-28T11:57:02.980Z,22.60
2019-02-28T11:59:31.807Z,22.50
2019-02-28T12:02:01.446Z,22.50
2019-02-28T12:04:31.155Z,22.40
2019-02-28T12:07:01.707Z,22.40
2019-02-28T12:09:31.471Z,22.30
2019-02-28T12:12:01.107Z,22.20
2019-02-28T12:14:30.731Z,22.10
2019-02-28T12:17:00.372Z,22.00
2019-02-28T12:19:30.078Z,22.10
2019-02-28T12:22:00.236Z,22.20
2019-02-28T12:24:32.355Z,22.30
2019-02-28T12:27:01.330Z,22.30
2019-02-28T12:29:30.964Z,22.30
2019-02-28T12:32:03.358Z,22.30
2019-02-28T12:34:32.994Z,22.30
2019-02-28T12:37:02.731Z,22.30
2019-02-28T12:39:33.323Z,22.30
2019-02-28T12:42:03.911Z,22.40
2019-02-28T12:44:33.621Z,22.20
2019-02-28T12:47:03.425Z,22.10
2019-02-28T12:49:33.035Z,22.00
2019-02-28T12:52:02.802Z,22.00
2019-02-28T12:54:33.510Z,21.90
2019-02-28T12:57:03.927Z,21.90
2019-02-28T12:59:34.828Z,22.00
2019-02-28T13:02:08.409Z,21.90
2019-02-28T13:04:36.971Z,21.90
2019-02-28T13:07:06.606Z,21.80
2019-02-28T13:09:36.415Z,21.80
2019-02-28T13:12:08.105Z,21.80
2019-02-28T13:14:40.732Z,21.90
2019-02-28T13:17:08.963Z,22.00
2019-02-28T13:19:38.776Z,22.10
2019-02-28T13:22:08.478Z,22.00
2019-02-28T13:24:38.115Z,22.00
2019-02-28T13:27:09.870Z,22.00
2019-02-28T13:29:41.535Z,22.10
2019-02-28T13:32:11.231Z,22.10
2019-02-28T13:34:40.952Z,22.10
2019-02-28T13:37:10.978Z,22.10
2019-02-28T13:39:40.618Z,22.10
2019-02-28T13:42:10.406Z,22.00
2019-02-28T13:44:40.059Z,22.10
2019-02-28T13:47:10.840Z,22.10
2019-02-28T13:49:40.788Z,22.00
2019-02-28T13:52:10.474Z,22.00
2019-02-28T13:54:42.093Z,22.00
2019-02-28T13:57:11.505Z,21.90
2019-02-28T13:59:41.244Z,21.80
2019-02-28T14:02:11.091Z,21.80
2019-02-28T14:04:41.636Z,21.80
2019-02-28T14:07:11.287Z,21.70
2019-02-28T14:09:41.035Z,21.70
2019-02-28T14:12:10.777Z,21.80
2019-02-28T14:14:42.357Z,21.80
2019-02-28T14:17:12.238Z,21.80
2019-02-28T14:19:41.875Z,21.70
2019-02-28T14:22:12.330Z,21.80
2019-02-28T14:24:42.054Z,21.70
2019-02-28T14:27:11.751Z,21.80
2019-02-28T14:29:42.616Z,21.90
2019-02-28T14:32:12.739Z,21.90
2019-02-28T14:34:42.451Z,21.80
2019-02-28T14:37:12.083Z,21.80
2019-02-28T14:39:42.738Z,21.80
2019-02-28T14:42:13.268Z,21.80
2019-02-28T14:44:42.948Z,21.80
2019-02-28T14:47:12.807Z,21.70
2019-02-28T14:49:43.822Z,21.80
2019-02-28T14:52:14.409Z,21.80
2019-02-28T14:54:44.238Z,21.80
2019-02-28T14:57:16.689Z,21.70
2019-02-28T14:59:45.209Z,21.70
2019-02-28T15:02:15.076Z,21.70
2019-02-28T15:04:45.839Z,21.70
2019-02-28T15:07:15.512Z,21.70
2019-02-28T15:09:45.214Z,21.70
2019-02-28T15:12:15.015Z,21.70
2019-02-28T15:14:45.787Z,21.70
2019-02-28T15:17:15.487Z,21.70
2019-02-28T15:19:46.164Z,21.60
2019-02-28T15:22:17.833Z,21.60
2019-02-28T15:24:48.089Z,21.60
2019-02-28T15:27:17.719Z,21.60
2019-02-28T15:29:47.456Z,21.60
2019-02-28T15:32:17.969Z,21.50
2019-02-28T15:34:47.679Z,21.50
2019-02-28T15:37:17.303Z,21.50
2019-02-28T15:39:49.856Z,21.50
2019-02-28T15:42:18.339Z,21.50
2019-02-28T15:44:47.979Z,21.50
2019-02-28T15:47:19.394Z,21.60
2019-02-28T15:49:48.956Z,21.60
2019-02-28T15:52:18.649Z,21.60
2019-02-28T15:54:48.291Z,21.50
2019-02-28T15:57:17.923Z,21.50
2019-02-28T15:59:49.727Z,21.50
2019-02-28T16:02:19.127Z,21.50
2019-02-28T16:04:48.763Z,21.40
2019-02-28T16:07:18.556Z,21.40
2019-02-28T16:09:48.261Z,21.30
2019-02-28T16:12:17.973Z,21.30
2019-02-28T16:14:47.679Z,21.30
2019-02-28T16:17:17.405Z,21.30
2019-02-28T16:19:47.018Z,21.30
2019-02-28T16:22:18.148Z,21.30
2019-02-28T16:24:48.043Z,21.30
2019-02-28T16:27:18.721Z,21.30
2019-02-28T16:29:48.418Z,21.20
2019-02-28T16:32:18.055Z,21.30
2019-02-28T16:34:48.037Z,21.20
2019-02-28T16:37:17.768Z,21.20
2019-02-28T16:39:49.156Z,21.20
2019-02-28T16:42:19.611Z,21.20
2019-02-28T16:44:49.264Z,21.20
2019-02-28T16:47:21.434Z,21.20
2019-02-28T16:49:50.242Z,21.20
2019-02-28T16:52:19.922Z,21.30
2019-02-28T16:54:49.639Z,21.20
2019-02-28T16:57:19.287Z,21.20
2019-02-28T16:59:48.914Z,21.20
2019-02-28T17:02:18.775Z,21.20
2019-02-28T17:04:48.587Z,21.20
2019-02-28T17:07:19.759Z,21.20
2019-02-28T17:09:49.455Z,21.20
2019-02-28T17:12:36.971Z,21.20
2019-02-28T17:15:12.858Z,21.20
2019-02-28T17:17:48.055Z,21.20
2019-02-28T17:20:18.738Z,21.20
2019-02-28T17:22:48.476Z,21.20
2019-02-28T17:25:18.445Z,21.20
2019-02-28T17:27:56.896Z,21.20
2019-02-28T17:30:41.149Z,21.20
2019-02-28T17:33:10.796Z,21.20
2019-02-28T17:35:40.423Z,21.20
2019-02-28T17:38:11.035Z,21.20
2019-02-28T17:40:40.748Z,21.20
2019-02-28T17:43:10.456Z,21.20
2019-02-28T17:45:40.164Z,21.20
2019-02-28T17:48:53.171Z,21.20
2019-02-28T17:51:55.437Z,21.20
2019-02-28T17:54:47.411Z,21.20
2019-02-28T17:57:53.639Z,21.20
2019-02-28T18:00:52.951Z,21.20
2019-02-28T18:03:31.043Z,21.20
2019-02-28T18:06:23.411Z,21.20
2019-02-28T18:09:33.675Z,21.30
2019-02-28T18:12:32.787Z,21.30
2019-02-28T18:15:14.266Z,21.30
2019-02-28T18:18:20.123Z,21.20
2019-02-28T18:21:26.507Z,21.30
2019-02-28T18:24:24.849Z,21.30
2019-02-28T18:27:36.063Z,21.30
2019-02-28T18:30:42.659Z,21.30
2019-02-28T18:33:12.547Z,21.30
2019-02-28T18:35:42.242Z,21.30
2019-02-28T18:38:11.891Z,21.30
2019-02-28T18:40:41.531Z,21.30
2019-02-28T18:43:11.167Z,21.30
2019-02-28T18:45:40.794Z,21.30
2019-02-28T18:48:11.319Z,21.30
2019-02-28T18:50:41.036Z,21.30
2019-02-28T18:53:10.751Z,21.30
2019-02-28T18:55:40.382Z,21.30
2019-02-28T18:58:10.027Z,21.30
2019-02-28T19:00:39.666Z,21.30
2019-02-28T19:03:09.390Z,21.30
2019-02-28T19:05:39.088Z,21.30
2019-02-28T19:08:08.791Z,21.30
2019-02-28T19:10:38.572Z,21.30
2019-02-28T19:13:08.231Z,21.30
2019-02-28T19:15:37.860Z,21.30
2019-02-28T19:18:07.563Z,21.30
2019-02-28T19:20:37.200Z,21.30
2019-02-28T19:23:06.847Z,21.40
2019-02-28T19:25:37.515Z,21.30
2019-02-28T19:28:07.153Z,21.30
2019-02-28T19:30:36.802Z,21.30
2019-02-28T19:33:06.438Z,21.30
2019-02-28T19:35:36.071Z,21.30
2019-02-28T19:38:05.939Z,21.30
2019-02-28T19:44:10.811Z,21.30
2019-02-28T19:46:40.444Z,21.30
2019-02-28T19:49:10.091Z,21.30
2019-02-28T19:51:40.418Z,21.30
2019-02-28T19:54:10.245Z,21.30
2019-02-28T19:56:39.871Z,21.30
2019-02-28T19:59:09.619Z,21.30
2019-02-28T20:01:39.243Z,21.30
2019-02-28T20:04:08.967Z,21.30
2019-02-28T20:06:38.671Z,21.30
2019-02-28T20:09:09.123Z,21.30
2019-02-28T20:11:39.095Z,21.30
2019-02-28T20:14:09.877Z,21.30
2019-02-28T20:16:39.577Z,21.30
2019-02-28T20:19:09.287Z,21.30
2019-02-28T20:21:38.914Z,21.30
2019-02-28T20:24:09.002Z,21.30
2019-02-28T20:26:38.779Z,21.30
2019-02-28T20:29:08.538Z,21.30
2019-02-28T20:31:39.274Z,21.30
2019-02-28T20:34:09.231Z,21.30
2019-02-28T20:36:38.881Z,21.30
2019-02-28T20:39:10.055Z,21.30
2019-02-28T20:41:39.961Z,21.30
2019-02-28T20:44:10.774Z,21.30
2019-02-28T20:46:40.399Z,21.30
2019-02-28T20:49:10.108Z,21.30
2019-02-28T20:51:40.711Z,21.30
2019-02-28T20:54:10.359Z,21.30
2019-02-28T20:56:40.069Z,21.30
2019-02-28T20:59:09.723Z,21.30
2019-02-28T21:01:39.366Z,21.30
2019-02-28T21:04:09.076Z,21.30
2019-02-28T21:06:38.775Z,21.30
2019-02-28T21:09:08.486Z,21.20
2019-02-28T21:11:38.256Z,21.30
2019-02-28T21:14:08.032Z,21.30
2019-02-28T21:16:37.656Z,21.20
2019-02-28T21:19:07.375Z,21.30
2019-02-28T21:21:37.000Z,21.30
2019-02-28T21:24:06.643Z,21.30
2019-02-28T21:26:36.342Z,21.20
2019-02-28T21:29:06.066Z,21.30
2019-02-28T21:31:35.771Z,21.30
2019-02-28T21:34:05.531Z,21.30
2019-02-28T21:36:35.355Z,21.20
2019-02-28T21:39:07.765Z,21.30
2019-02-28T21:41:39.010Z,21.20
2019-02-28T21:44:08.727Z,21.30
2019-02-28T21:46:38.367Z,21.20
2019-02-28T21:49:08.128Z,21.20
2019-02-28T21:51:38.832Z,21.20
2019-02-28T21:54:08.479Z,21.20
2019-02-28T21:56:38.187Z,21.20
2019-02-28T21:59:07.827Z,21.30
2019-02-28T22:01:37.456Z,21.20
2019-02-28T22:04:07.091Z,21.20
2019-02-28T22:06:36.759Z,21.20
2019-02-28T22:09:07.739Z,21.20
2019-02-28T22:11:38.315Z,21.20
2019-02-28T22:14:07.955Z,21.20
2019-02-28T22:16:37.659Z,21.20
2019-02-28T22:19:07.295Z,21.20
2019-02-28T22:21:36.922Z,21.20
2019-02-28T22:24:06.564Z,21.20
2019-02-28T22:26:36.195Z,21.20
2019-02-28T22:29:05.863Z,21.20
2019-02-28T22:31:52.977Z,21.20
2019-02-28T22:34:40.422Z,21.20
2019-02-28T22:37:10.051Z,21.20
2019-02-28T22:39:39.771Z,21.20
2019-02-28T22:42:09.466Z,21.20
2019-02-28T22:44:39.098Z,21.20
2019-02-28T22:47:09.687Z,21.20
2019-02-28T22:49:39.331Z,21.20
2019-02-28T22:52:08.964Z,21.20
2019-02-28T22:54:38.605Z,21.20
2019-02-28T22:57:08.284Z,21.10
2019-02-28T22:59:37.966Z,21.20
2019-02-28T23:02:07.739Z,21.10
2019-02-28T23:04:38.437Z,21.10
2019-02-28T23:07:08.050Z,21.10
2019-02-28T23:09:37.690Z,21.10
2019-02-28T23:12:08.295Z,21.10
2019-02-28T23:14:38.008Z,21.10
2019-02-28T23:17:07.638Z,21.10
2019-02-28T23:19:37.262Z,21.10
2019-02-28T23:22:06.978Z,21.10
2019-02-28T23:24:36.611Z,21.10
2019-02-28T23:27:13.812Z,21.10
2019-02-28T23:29:48.652Z,21.10
2019-02-28T23:32:40.388Z,21.10
2019-02-28T23:35:16.956Z,21.10
2019-02-28T23:37:46.676Z,21.10
2019-02-28T23:40:16.386Z,21.10
2019-02-28T23:42:46.027Z,21.10
2019-02-28T23:45:15.743Z,21.10
2019-02-28T23:47:45.375Z,21.10
2019-02-28T23:50:15.007Z,21.10
2019-02-28T23:52:44.638Z,21.10
2019-02-28T23:55:14.334Z,21.10
2019-02-28T23:57:43.978Z,21.10
